createdAt,value
2023-03-26T00:01:30.182Z,97207.76
2023-03-26T00:04:34.593Z,97212.88
2023-03-26T00:07:37.658Z,97223.89
2023-03-26T00:10:41.897Z,97220.06
2023-03-26T00:13:46.835Z,97213.26
2023-03-26T00:16:50.030Z,97203.58
2023-03-26T00:19:53.681Z,97198.52
2023-03-26T00:22:56.743Z,97195.27
2023-03-26T00:26:00.891Z,97188.02
2023-03-26T00:29:04.909Z,97186.54
2023-03-26T00:32:08.014Z,97184.38
2023-03-26T00:35:11.210Z,97181.48
2023-03-26T00:38:14.904Z,97179.73
2023-03-26T00:41:26.362Z,97178.78
2023-03-26T00:44:29.768Z,97178.23
2023-03-26T00:47:33.504Z,97170.27
2023-03-26T00:50:36.549Z,97170.54
2023-03-26T00:53:41.280Z,97165.33
2023-03-26T00:56:44.794Z,97159.33
2023-03-26T00:59:51.520Z,97152.77
2023-03-26T01:02:55.906Z,97157.30
2023-03-26T01:06:09.689Z,97156.88
2023-03-26T01:09:17.292Z,97149.55
2023-03-26T01:12:24.553Z,97152.29
2023-03-26T01:15:30.152Z,97154.09
2023-03-26T01:18:40.994Z,97149.67
2023-03-26T01:21:44.146Z,97146.05
2023-03-26T01:24:53.504Z,97143.13
2023-03-26T01:27:57.224Z,97146.73
2023-03-26T01:31:29.750Z,97147.60
2023-03-26T01:34:41.966Z,97149.23
2023-03-26T01:38:11.087Z,97146.84
2023-03-26T01:41:22.688Z,97144.65
2023-03-26T01:44:34.569Z,97144.59
2023-03-26T01:47:41.192Z,97149.27
2023-03-26T01:50:44.814Z,97150.44
2023-03-26T01:53:48.517Z,97152.46
2023-03-26T01:57:18.728Z,97149.70
2023-03-26T02:00:26.039Z,97151.21
2023-03-26T02:03:38.643Z,97154.51
2023-03-26T02:06:51.781Z,97158.99
2023-03-26T02:10:02.185Z,97169.98
2023-03-26T02:13:06.172Z,97175.17
2023-03-26T02:16:16.570Z,97168.73
2023-03-26T02:19:21.738Z,97157.13
2023-03-26T02:22:29.859Z,97143.69
2023-03-26T02:25:35.301Z,97128.27
2023-03-26T02:28:38.742Z,97130.02
2023-03-26T02:31:43.575Z,97135.04
2023-03-26T02:34:47.401Z,97129.66
2023-03-26T02:37:51.054Z,97118.38
2023-03-26T02:40:55.869Z,97114.94
2023-03-26T02:44:01.145Z,97110.29
2023-03-26T02:47:22.976Z,97115.15
2023-03-26T02:50:32.559Z,97116.90
2023-03-26T02:53:58.874Z,97120.45
2023-03-26T02:57:07.872Z,97113.95
2023-03-26T03:00:33.717Z,97117.60
2023-03-26T03:03:55.225Z,97114.71
2023-03-26T03:07:14.433Z,97120.96
2023-03-26T03:10:21.928Z,97119.81
2023-03-26T03:13:45.991Z,97115.59
2023-03-26T03:16:53.994Z,97112.34
2023-03-26T03:19:58.201Z,97111.79
2023-03-26T03:23:01.791Z,97106.31
2023-03-26T03:26:06.809Z,97100.86
2023-03-26T03:29:10.727Z,97107.48
2023-03-26T03:32:14.264Z,97108.16
2023-03-26T03:35:21.208Z,97108.48
2023-03-26T03:38:26.777Z,97112.71
2023-03-26T03:41:30.350Z,97113.68
2023-03-26T03:44:33.793Z,97114.05
2023-03-26T03:47:37.131Z,97108.47
2023-03-26T03:50:40.689Z,97114.17
2023-03-26T03:53:57.561Z,97133.86
2023-03-26T03:57:24.042Z,97135.33
2023-03-26T04:00:41.841Z,97138.88
2023-03-26T04:04:03.977Z,97137.17
2023-03-26T04:07:20.400Z,97132.68
2023-03-26T04:10:38.122Z,97122.35
2023-03-26T04:13:41.269Z,97117.89
2023-03-26T04:17:14.075Z,97105.11
2023-03-26T04:20:19.309Z,97105.17
2023-03-26T04:23:23.404Z,97110.42
2023-03-26T04:26:32.192Z,97119.23
2023-03-26T04:29:43.983Z,97122.11
2023-03-26T04:32:51.837Z,97120.27
2023-03-26T04:35:56.923Z,97122.84
2023-03-26T04:39:04.850Z,97120.20
2023-03-26T04:42:28.761Z,97119.99
2023-03-26T04:45:42.482Z,97117.71
2023-03-26T04:48:45.897Z,97117.83
2023-03-26T04:51:49.338Z,97114.85
2023-03-26T04:55:24.918Z,97110.94
2023-03-26T04:58:35.641Z,97113.88
2023-03-26T05:01:40.257Z,97109.76
2023-03-26T05:04:45.918Z,97109.06
2023-03-26T05:07:49.546Z,97112.45
2023-03-26T05:10:53.631Z,97112.41
2023-03-26T05:14:04.448Z,97115.40
2023-03-26T05:17:10.961Z,97117.86
2023-03-26T05:20:21.011Z,97121.94
2023-03-26T05:23:24.788Z,97121.66
2023-03-26T05:26:34.741Z,97117.16
2023-03-26T05:29:38.260Z,97122.93
2023-03-26T05:32:41.615Z,97122.04
2023-03-26T05:35:45.763Z,97122.56
2023-03-26T05:38:49.972Z,97121.77
2023-03-26T05:42:26.726Z,97116.14
2023-03-26T05:45:48.278Z,97118.86
2023-03-26T05:49:01.637Z,97119.70
2023-03-26T05:52:07.704Z,97126.18
2023-03-26T05:55:30.894Z,97118.32
2023-03-26T05:58:52.597Z,97119.39
2023-03-26T06:02:14.269Z,97118.79
2023-03-26T06:05:37.463Z,97118.17
2023-03-26T06:09:01.956Z,97123.27
2023-03-26T06:12:07.941Z,97116.92
2023-03-26T06:15:11.581Z,97115.09
2023-03-26T06:18:23.537Z,97119.36
2023-03-26T06:21:45.018Z,97120.79
2023-03-26T06:24:56.291Z,97120.61
2023-03-26T06:28:16.028Z,97124.77
2023-03-26T06:31:36.083Z,97122.19
2023-03-26T06:34:54.928Z,97124.70
2023-03-26T06:37:58.911Z,97123.05
2023-03-26T06:41:06.355Z,97127.39
2023-03-26T06:44:28.977Z,97132.27
2023-03-26T06:47:50.669Z,97129.85
2023-03-26T06:51:12.180Z,97133.05
2023-03-26T06:54:33.438Z,97134.30
2023-03-26T06:57:51.452Z,97136.25
2023-03-26T07:01:14.854Z,97140.13
2023-03-26T07:04:36.272Z,97138.05
2023-03-26T07:08:14.761Z,97142.17
2023-03-26T07:11:53.049Z,97144.30
2023-03-26T07:15:14.486Z,97145.42
2023-03-26T07:18:40.128Z,97149.52
2023-03-26T07:21:46.916Z,97149.38
2023-03-26T07:25:19.473Z,97155.98
2023-03-26T07:29:04.984Z,97152.67
2023-03-26T07:32:43.433Z,97152.73
2023-03-26T07:36:17.630Z,97147.98
2023-03-26T07:39:42.713Z,97140.05
2023-03-26T07:43:18.941Z,97141.52
2023-03-26T07:46:41.546Z,97146.01
2023-03-26T07:49:57.879Z,97149.77
2023-03-26T07:53:22.574Z,97149.44
2023-03-26T07:56:56.535Z,97147.88
2023-03-26T08:00:30.670Z,97153.38
2023-03-26T08:03:55.260Z,97154.33
2023-03-26T08:07:30.548Z,97154.30
2023-03-26T08:11:04.010Z,97152.55
2023-03-26T08:14:28.682Z,97157.77
2023-03-26T08:17:45.657Z,97153.75
2023-03-26T08:21:14.241Z,97149.77
2023-03-26T08:24:43.652Z,97147.46
2023-03-26T08:28:09.986Z,97141.81
2023-03-26T08:31:15.368Z,97136.56
2023-03-26T08:34:18.490Z,97136.05
2023-03-26T08:37:21.621Z,97131.30
2023-03-26T08:41:00.885Z,97136.21
2023-03-26T08:44:36.850Z,97130.11
2023-03-26T08:48:10.654Z,97130.37
2023-03-26T08:51:40.219Z,97130.79
2023-03-26T08:54:56.851Z,97130.71
2023-03-26T08:58:22.570Z,97137.07
2023-03-26T09:01:49.510Z,97127.66
2023-03-26T09:05:10.828Z,97121.64
2023-03-26T09:08:53.730Z,97129.58
2023-03-26T09:12:22.806Z,97124.25
2023-03-26T09:15:51.205Z,97115.71
2023-03-26T09:19:18.488Z,97123.77
2023-03-26T09:22:39.602Z,97127.29
2023-03-26T09:26:12.023Z,97125.44
2023-03-26T09:29:32.797Z,97122.21
2023-03-26T09:33:01.870Z,97122.81
2023-03-26T09:36:17.572Z,97125.51
2023-03-26T09:39:20.898Z,97122.30
2023-03-26T09:42:26.614Z,97119.86
2023-03-26T09:45:46.995Z,97118.40
2023-03-26T09:49:07.385Z,97116.44
2023-03-26T09:52:28.423Z,97117.20
2023-03-26T09:55:44.879Z,97115.23
2023-03-26T09:59:23.143Z,97120.01
2023-03-26T10:03:19.920Z,97125.91
2023-03-26T10:06:39.475Z,97123.58
2023-03-26T10:10:23.847Z,97135.94
2023-03-26T10:13:37.980Z,97138.80
2023-03-26T10:16:46.956Z,97126.94
2023-03-26T10:20:52.742Z,97120.34
2023-03-26T10:29:59.765Z,97094.68
2023-03-26T10:33:03.275Z,97095.39
2023-03-26T10:36:27.715Z,97101.11
2023-03-26T10:49:22.366Z,97094.25
2023-03-26T10:57:44.994Z,97081.39
2023-03-26T11:12:37.677Z,97069.69
2023-03-26T11:16:01.334Z,97061.89
2023-03-26T11:19:21.680Z,97061.33
2023-03-26T11:22:34.725Z,97056.53
2023-03-26T11:25:58.539Z,97057.15
2023-03-26T11:29:32.904Z,97058.46
2023-03-26T11:32:45.322Z,97064.10
2023-03-26T11:36:02.425Z,97061.98
2023-03-26T11:39:13.307Z,97062.13
2023-03-26T11:42:18.089Z,97054.95
2023-03-26T11:45:27.265Z,97059.41
2023-03-26T11:48:43.822Z,97056.33
2023-03-26T11:51:50.330Z,97052.11
2023-03-26T11:54:59.112Z,97051.30
2023-03-26T11:58:04.954Z,97037.42
2023-03-26T12:01:29.719Z,97034.73
2023-03-26T12:04:39.900Z,97028.59
2023-03-26T12:07:59.504Z,97028.07
2023-03-26T12:11:10.583Z,97020.33
2023-03-26T12:14:22.732Z,97017.35
2023-03-26T12:17:34.536Z,97013.02
2023-03-26T12:20:38.310Z,97004.23
2023-03-26T12:24:18.359Z,97001.02
2023-03-26T12:27:28.140Z,96996.86
2023-03-26T12:30:36.769Z,96997.18
2023-03-26T12:33:39.882Z,96991.14
2023-03-26T12:36:49.040Z,96982.42
2023-03-26T12:40:24.870Z,96982.75
2023-03-26T12:44:55.725Z,96975.90
2023-03-26T12:47:59.881Z,96972.55
2023-03-26T12:51:02.342Z,96966.09
2023-03-26T12:54:22.959Z,96958.16
2023-03-26T12:57:32.975Z,96954.16
2023-03-26T13:01:06.055Z,96948.70
2023-03-26T13:04:40.582Z,96948.33
2023-03-26T13:08:16.235Z,96945.44
2023-03-26T13:11:40.727Z,96940.42
2023-03-26T13:14:55.750Z,96944.37
2023-03-26T13:18:15.521Z,96943.61
2023-03-26T13:21:36.860Z,96935.50
2023-03-26T13:24:44.718Z,96933.37
2023-03-26T13:28:01.280Z,96926.77
2023-03-26T13:31:49.991Z,96920.55
2023-03-26T13:35:08.083Z,96911.23
2023-03-26T13:38:21.643Z,96916.42
2023-03-26T13:41:35.634Z,96913.11
2023-03-26T13:45:06.225Z,96912.16
2023-03-26T13:48:19.710Z,96916.19
2023-03-26T13:51:27.542Z,96911.95
2023-03-26T13:54:29.338Z,96908.60
2023-03-26T13:57:38.817Z,96906.98
2023-03-26T14:00:58.949Z,96909.48
2023-03-26T14:04:33.225Z,96907.39
2023-03-26T14:07:44.198Z,96905.57
2023-03-26T14:11:03.635Z,96905.36
2023-03-26T14:14:11.803Z,96905.84
2023-03-26T14:17:20.192Z,96898.70
2023-03-26T14:20:44.036Z,96899.92
2023-03-26T14:24:22.346Z,96899.57
2023-03-26T14:27:56.200Z,96897.67
2023-03-26T14:31:19.936Z,96898.80
2023-03-26T14:34:22.874Z,96893.52
2023-03-26T14:37:42.279Z,96892.73
2023-03-26T14:41:22.982Z,96889.16
2023-03-26T14:44:47.909Z,96883.06
2023-03-26T15:11:05.513Z,96864.82
2023-03-26T15:14:27.400Z,96865.17
2023-03-26T15:18:18.640Z,96867.54
2023-03-26T15:24:30.912Z,96867.34
2023-03-26T15:28:30.126Z,96863.77
2023-03-26T15:31:37.086Z,96853.04
2023-03-26T15:35:30.162Z,96854.82
2023-03-26T15:38:54.914Z,96850.96
2023-03-26T15:42:04.106Z,96850.99
2023-03-26T15:45:16.182Z,96849.82
2023-03-26T15:49:02.583Z,96848.86
2023-03-26T15:56:54.743Z,96844.11
2023-03-26T16:00:26.034Z,96842.15
2023-03-26T16:03:41.425Z,96839.27
2023-03-26T16:07:05.604Z,96835.91
2023-03-26T16:10:45.288Z,96835.07
2023-03-26T16:14:10.354Z,96830.44
2023-03-26T16:17:23.653Z,96828.94
2023-03-26T16:20:51.038Z,96829.02
2023-03-26T16:23:57.867Z,96824.79
2023-03-26T16:27:10.931Z,96821.94
2023-03-26T16:30:29.089Z,96821.17
2023-03-26T16:33:50.682Z,96823.52
2023-03-26T16:36:55.407Z,96823.96
2023-03-26T16:44:37.598Z,96823.98
2023-03-26T16:47:51.460Z,96821.17
2023-03-26T16:51:03.864Z,96821.58
2023-03-26T16:54:07.220Z,96820.73
2023-03-26T16:57:25.092Z,96817.27
2023-03-26T17:00:34.600Z,96810.42
2023-03-26T17:03:50.009Z,96811.59
2023-03-26T17:07:24.145Z,96813.77
2023-03-26T17:10:33.108Z,96814.89
2023-03-26T17:14:06.437Z,96817.88
2023-03-26T17:17:23.634Z,96825.54
2023-03-26T17:20:50.604Z,96820.25
2023-03-26T17:23:59.730Z,96821.42
2023-03-26T17:27:25.010Z,96821.27
2023-03-26T17:30:50.549Z,96820.27
2023-03-26T17:33:54.484Z,96820.69
2023-03-26T17:37:04.265Z,96822.30
2023-03-26T17:40:27.345Z,96819.84
2023-03-26T17:43:36.508Z,96823.65
2023-03-26T17:46:45.048Z,96820.55
2023-03-26T17:49:54.025Z,96832.58
2023-03-26T17:53:23.592Z,96835.55
2023-03-26T17:56:32.209Z,96837.14
2023-03-26T17:59:39.226Z,96835.58
2023-03-26T18:02:49.769Z,96836.00
2023-03-26T18:10:19.094Z,96835.36
2023-03-26T18:14:07.032Z,96832.98
2023-03-26T18:17:10.616Z,96829.43
2023-03-26T18:20:24.493Z,96826.80
2023-03-26T18:23:37.556Z,96825.16
2023-03-26T18:27:06.423Z,96829.05
2023-03-26T18:30:30.869Z,96826.70
2023-03-26T18:33:47.821Z,96824.41
2023-03-26T18:37:15.857Z,96829.73
2023-03-26T18:40:24.503Z,96828.04
2023-03-26T18:43:34.848Z,96822.26
2023-03-26T18:51:06.884Z,96827.98
2023-03-26T18:58:52.592Z,96825.23
2023-03-26T19:03:03.454Z,96831.52
2023-03-26T19:06:57.630Z,96825.52
2023-03-26T19:26:15.573Z,96797.48
2023-03-26T19:53:37.439Z,96778.95
2023-03-26T19:56:40.690Z,96776.89
2023-03-26T19:59:46.261Z,96769.93
2023-03-26T20:02:54.184Z,96768.55
2023-03-26T20:05:57.481Z,96760.02
2023-03-26T20:09:01.364Z,96757.30
2023-03-26T20:12:04.577Z,96756.16
2023-03-26T20:15:19.486Z,96752.51
2023-03-26T20:18:23.844Z,96758.41
2023-03-26T20:21:39.224Z,96751.00
2023-03-26T20:24:52.918Z,96751.29
2023-03-26T20:27:56.637Z,96751.35
2023-03-26T20:31:00.255Z,96746.67
2023-03-26T20:34:03.536Z,96746.90
2023-03-26T20:37:07.061Z,96750.00
2023-03-26T20:40:12.336Z,96745.56
2023-03-26T20:43:18.462Z,96739.09
2023-03-26T20:46:31.255Z,96730.89
2023-03-26T20:49:35.044Z,96720.77
2023-03-26T20:52:38.083Z,96719.66
2023-03-26T20:55:48.308Z,96718.45
2023-03-26T20:59:03.643Z,96714.73
2023-03-26T21:02:16.616Z,96715.65
2023-03-26T21:05:25.022Z,96711.53
2023-03-26T21:08:34.174Z,96708.91
2023-03-26T21:12:01.892Z,96702.91
2023-03-26T21:15:10.583Z,96690.36
2023-03-26T21:18:20.250Z,96681.41
2023-03-26T21:21:42.785Z,96684.09
2023-03-26T21:25:05.462Z,96691.63
2023-03-26T21:28:42.409Z,96701.59
2023-03-26T21:31:46.802Z,96704.36
2023-03-26T21:34:58.566Z,96706.06
2023-03-26T21:38:06.411Z,96707.95
2023-03-26T21:41:24.368Z,96709.79
2023-03-26T21:44:27.793Z,96709.29
2023-03-26T21:47:31.316Z,96702.23
2023-03-26T21:50:34.869Z,96699.43
2023-03-26T21:53:38.382Z,96695.46
2023-03-26T21:56:49.926Z,96692.11
2023-03-26T22:00:18.242Z,96686.02
2023-03-26T22:03:38.171Z,96682.36
2023-03-26T22:06:48.025Z,96680.27
2023-03-26T22:09:52.105Z,96681.84
2023-03-26T22:12:55.549Z,96682.25
2023-03-26T22:15:58.891Z,96680.50
2023-03-26T22:19:02.067Z,96680.63
2023-03-26T22:22:05.434Z,96682.80
2023-03-26T22:25:10.425Z,96679.94
2023-03-26T22:28:13.906Z,96678.17
2023-03-26T22:31:17.668Z,96681.19
2023-03-26T22:34:21.369Z,96679.87
2023-03-26T22:37:25.944Z,96678.48
2023-03-26T22:40:29.214Z,96669.25
2023-03-26T22:43:32.541Z,96666.64
2023-03-26T22:46:35.819Z,96661.85
2023-03-26T22:49:40.030Z,96661.25
2023-03-26T22:52:43.308Z,96657.84
2023-03-26T22:55:46.560Z,96653.94
2023-03-26T22:58:49.808Z,96657.13
2023-03-26T23:01:53.317Z,96658.50
2023-03-26T23:04:56.476Z,96656.38
2023-03-26T23:08:00.409Z,96654.52
2023-03-26T23:11:17.598Z,96654.23
2023-03-26T23:14:21.830Z,96648.36
2023-03-26T23:17:25.081Z,96651.61
2023-03-26T23:20:29.228Z,96648.42
2023-03-26T23:23:34.530Z,96642.46
2023-03-26T23:26:49.571Z,96638.27
2023-03-26T23:29:53.532Z,96632.75
2023-03-26T23:32:57.462Z,96626.56
2023-03-26T23:36:04.248Z,96618.19
2023-03-26T23:39:10.989Z,96617.29
2023-03-26T23:42:14.078Z,96620.59
2023-03-26T23:45:17.444Z,96613.65
2023-03-26T23:48:23.282Z,96614.05
2023-03-26T23:51:26.511Z,96614.60
2023-03-26T23:54:30.120Z,96615.98
2023-03-26T23:57:33.180Z,96621.23
